createdAt,value
2023-05-12T00:00:58.394Z,2.25
2023-05-12T00:06:03.754Z,2.28
2023-05-12T00:11:05.671Z,2.30
2023-05-12T00:16:07.758Z,2.13
2023-05-12T00:21:09.694Z,2.47
2023-05-12T00:26:11.558Z,2.17
2023-05-12T00:31:14.433Z,2.65
2023-05-12T00:36:16.374Z,2.10
2023-05-12T00:41:18.522Z,2.67
2023-05-12T00:46:21.404Z,2.20
2023-05-12T00:51:24.035Z,2.63
2023-05-12T00:56:26.069Z,2.22
2023-05-12T01:01:28.380Z,2.47
2023-05-12T01:06:39.924Z,2.50
2023-05-12T01:11:43.342Z,2.50
2023-05-12T01:16:53.186Z,2.42
2023-05-12T01:21:55.820Z,2.70
2023-05-12T01:26:58.697Z,2.20
2023-05-12T01:32:00.789Z,2.35
2023-05-12T01:37:02.830Z,2.15
2023-05-12T01:42:05.950Z,2.35
2023-05-12T01:47:10.061Z,2.90
2023-05-12T01:52:13.990Z,2.55
2023-05-12T01:57:16.194Z,2.60
2023-05-12T02:02:18.564Z,2.85
2023-05-12T02:07:20.503Z,2.35
2023-05-12T02:12:22.820Z,2.53
2023-05-12T02:17:25.252Z,2.45
2023-05-12T02:22:27.375Z,2.35
2023-05-12T02:27:32.552Z,2.75
2023-05-12T02:32:34.779Z,2.72
2023-05-12T02:37:36.919Z,2.50
2023-05-12T02:42:40.445Z,2.65
2023-05-12T02:47:42.468Z,2.50
2023-05-12T02:52:45.090Z,2.42
2023-05-12T02:57:47.256Z,2.42
2023-05-12T03:02:49.141Z,2.53
2023-05-12T03:07:51.124Z,2.55
2023-05-12T03:12:52.962Z,3.15
2023-05-12T03:17:55.718Z,3.00
2023-05-12T03:22:57.878Z,2.50
2023-05-12T03:27:59.952Z,2.55
2023-05-12T03:33:01.989Z,2.75
2023-05-12T03:38:04.998Z,2.75
2023-05-12T03:43:06.882Z,2.90
2023-05-12T03:48:08.863Z,3.22
2023-05-12T03:53:10.905Z,2.90
2023-05-12T03:58:12.818Z,3.38
2023-05-12T04:03:15.615Z,3.42
2023-05-12T04:08:17.579Z,3.33
2023-05-12T04:13:19.445Z,3.65
2023-05-12T04:18:21.441Z,3.70
2023-05-12T04:23:23.690Z,4.00
2023-05-12T04:28:25.646Z,4.10
2023-05-12T04:33:28.314Z,3.40
2023-05-12T04:38:30.533Z,4.22
2023-05-12T04:48:42.138Z,4.15
2023-05-12T04:53:44.118Z,4.28
2023-05-12T04:58:48.353Z,4.03
2023-05-12T05:03:50.538Z,4.40
2023-05-12T05:08:53.282Z,4.65
2023-05-12T05:13:55.217Z,4.93
2023-05-12T05:18:58.571Z,4.82
2023-05-12T05:24:00.876Z,5.38
2023-05-12T05:29:04.832Z,4.60
2023-05-12T05:34:07.876Z,4.18
2023-05-12T05:39:10.554Z,4.53
2023-05-12T05:44:12.748Z,4.65
2023-05-12T05:49:14.955Z,4.45
2023-05-12T05:54:17.281Z,4.63
2023-05-12T05:59:20.524Z,4.80
2023-05-12T06:04:23.449Z,5.03
2023-05-12T06:09:25.715Z,4.40
2023-05-12T06:14:27.665Z,4.05
2023-05-12T06:19:30.317Z,4.35
2023-05-12T06:24:32.153Z,4.13
2023-05-12T06:29:34.316Z,4.13
2023-05-12T06:34:36.211Z,3.65
2023-05-12T06:39:38.418Z,4.35
2023-05-12T06:44:42.023Z,4.00
2023-05-12T06:49:44.406Z,4.60
2023-05-12T06:54:51.051Z,3.80
2023-05-12T06:59:54.010Z,3.20
2023-05-12T07:04:56.836Z,3.70
2023-05-12T07:09:59.168Z,3.45
2023-05-12T07:15:02.137Z,3.70
2023-05-12T07:20:05.922Z,3.88
2023-05-12T07:25:08.313Z,3.90
2023-05-12T07:30:11.328Z,3.75
2023-05-12T07:35:13.192Z,3.80
2023-05-12T07:40:15.533Z,3.53
2023-05-12T07:45:23.080Z,3.50
2023-05-12T07:50:25.030Z,3.03
2023-05-12T07:55:26.942Z,3.28
2023-05-12T08:00:29.171Z,3.50
2023-05-12T08:05:31.390Z,3.38
2023-05-12T08:10:33.244Z,2.70
2023-05-12T08:15:35.218Z,2.95
2023-05-12T08:20:38.669Z,3.65
2023-05-12T08:25:41.353Z,2.88
2023-05-12T08:30:45.257Z,2.70
2023-05-12T08:35:47.203Z,2.05
2023-05-12T08:41:10.999Z,2.65
2023-05-12T08:46:13.550Z,3.10
2023-05-12T08:51:15.924Z,3.20
2023-05-12T09:01:26.699Z,2.42
2023-05-12T09:06:29.820Z,2.95
2023-05-12T09:11:32.528Z,2.58
2023-05-12T09:16:40.051Z,2.38
2023-05-12T09:21:42.661Z,2.03
2023-05-12T09:26:54.589Z,1.77
2023-05-12T09:32:02.562Z,4.32
2023-05-12T09:37:06.958Z,2.35
2023-05-12T09:42:13.286Z,1.85
2023-05-12T09:47:16.389Z,2.17
2023-05-12T09:52:23.026Z,2.40
2023-05-12T09:57:26.626Z,2.03
2023-05-12T10:02:28.701Z,1.90
2023-05-12T10:07:31.436Z,1.77
2023-05-12T10:12:35.698Z,2.30
2023-05-12T10:17:37.969Z,2.05
2023-05-12T10:22:41.127Z,2.28
2023-05-12T10:27:44.420Z,1.92
2023-05-12T10:32:47.044Z,1.83
2023-05-12T10:37:49.788Z,2.08
2023-05-12T10:42:52.873Z,2.20
2023-05-12T10:48:06.199Z,2.03
2023-05-12T10:53:11.458Z,2.50
2023-05-12T10:58:13.659Z,2.00
2023-05-12T11:03:18.890Z,2.00
2023-05-12T11:13:25.323Z,2.42
2023-05-12T11:18:27.241Z,1.92
2023-05-12T11:23:29.685Z,2.30
2023-05-12T11:28:41.370Z,2.08
2023-05-12T11:33:43.317Z,1.92
2023-05-12T11:38:51.741Z,2.25
2023-05-12T11:43:53.657Z,1.77
2023-05-12T11:48:59.899Z,1.92
2023-05-12T11:54:01.948Z,2.10
2023-05-12T11:59:03.834Z,1.75
2023-05-12T12:04:06.342Z,1.98
2023-05-12T12:09:08.726Z,2.20
2023-05-12T12:14:10.606Z,2.67
2023-05-12T12:19:12.567Z,2.35
2023-05-12T12:24:14.733Z,2.70
2023-05-12T12:29:17.342Z,2.50
2023-05-12T12:34:19.390Z,2.60
2023-05-12T12:39:23.290Z,2.50
2023-05-12T12:44:25.196Z,2.55
2023-05-12T12:49:27.031Z,2.53
2023-05-12T12:54:29.480Z,2.58
2023-05-12T12:59:31.327Z,3.00
2023-05-12T13:04:33.739Z,3.53
2023-05-12T13:09:35.626Z,3.17
2023-05-12T13:14:37.467Z,3.15
2023-05-12T13:19:39.328Z,2.90
2023-05-12T13:24:41.545Z,3.47
2023-05-12T13:29:47.365Z,2.78
2023-05-12T13:34:49.317Z,2.30
2023-05-12T13:39:51.271Z,2.75
2023-05-12T13:44:53.127Z,3.00
2023-05-12T13:49:56.610Z,3.17
2023-05-12T13:54:58.512Z,3.28
2023-05-12T14:00:00.895Z,3.05
2023-05-12T14:05:02.776Z,4.03
2023-05-12T14:10:04.926Z,3.75
2023-05-12T14:15:23.546Z,3.53
2023-05-12T14:20:29.860Z,2.90
2023-05-12T14:25:31.832Z,3.05
2023-05-12T14:30:35.332Z,2.47
2023-05-12T14:35:37.265Z,2.63
2023-05-12T14:40:40.400Z,2.60
2023-05-12T14:45:42.516Z,2.53
2023-05-12T14:50:44.352Z,1.90
2023-05-12T14:55:46.343Z,2.20
2023-05-12T15:00:48.684Z,1.60
2023-05-12T15:10:55.480Z,2.10
2023-05-12T15:15:57.367Z,2.28
2023-05-12T15:20:59.282Z,2.33
2023-05-12T15:26:15.416Z,1.80
2023-05-12T15:31:22.952Z,1.98
2023-05-12T15:36:24.864Z,2.65
2023-05-12T15:41:26.788Z,2.22
2023-05-12T15:46:29.006Z,1.85
2023-05-12T15:51:31.491Z,2.15
2023-05-12T15:56:33.308Z,2.10
2023-05-12T16:01:35.393Z,2.05
2023-05-12T16:06:37.216Z,2.17
2023-05-12T16:11:39.649Z,2.25
2023-05-12T16:16:48.355Z,2.58
2023-05-12T16:21:50.341Z,2.58
2023-05-12T16:26:52.204Z,2.50
2023-05-12T16:31:54.116Z,3.05
2023-05-12T16:36:55.955Z,2.45
2023-05-12T16:41:58.427Z,3.00
2023-05-12T16:47:00.235Z,4.68
2023-05-12T16:52:02.232Z,3.28
2023-05-12T16:57:04.243Z,2.88
2023-05-12T17:02:06.443Z,2.67
2023-05-12T17:07:08.633Z,2.45
2023-05-12T17:12:11.097Z,2.15
2023-05-12T17:17:13.370Z,2.55
2023-05-12T17:22:16.050Z,2.20
2023-05-12T17:27:18.359Z,2.55
2023-05-12T17:32:20.314Z,2.63
2023-05-12T17:37:22.804Z,2.92
2023-05-12T17:42:24.787Z,2.78
2023-05-12T17:47:30.254Z,2.70
2023-05-12T17:52:32.722Z,2.63
2023-05-12T17:57:34.798Z,2.65
2023-05-12T18:02:38.331Z,3.10
2023-05-12T18:07:40.404Z,2.97
2023-05-12T18:12:42.269Z,2.47
2023-05-12T18:17:44.247Z,3.28
2023-05-12T18:22:46.491Z,3.67
2023-05-12T18:27:49.033Z,3.30
2023-05-12T18:32:51.140Z,3.58
2023-05-12T18:37:53.259Z,3.75
2023-05-12T18:42:55.087Z,3.47
2023-05-12T18:47:57.043Z,3.30
2023-05-12T18:52:58.961Z,2.92
2023-05-12T18:58:00.792Z,3.40
2023-05-12T19:03:03.191Z,3.58
2023-05-12T19:08:05.723Z,3.05
2023-05-12T19:13:08.175Z,3.10
2023-05-12T19:18:10.078Z,3.40
2023-05-12T19:23:12.234Z,4.20
2023-05-12T19:28:14.076Z,2.90
2023-05-12T19:33:17.334Z,3.67
2023-05-12T19:38:19.655Z,3.55
2023-05-12T19:43:21.736Z,4.20
2023-05-12T19:48:23.590Z,5.30
2023-05-12T19:53:25.661Z,5.43
2023-05-12T19:58:27.622Z,4.05
2023-05-12T20:03:29.848Z,4.30
2023-05-12T20:08:32.492Z,4.20
2023-05-12T20:13:34.431Z,3.63
2023-05-12T20:18:36.356Z,3.78
2023-05-12T20:23:38.336Z,4.00
2023-05-12T20:28:40.816Z,3.22
2023-05-12T20:33:42.753Z,3.78
2023-05-12T20:38:44.628Z,3.85
2023-05-12T20:43:46.538Z,4.85
2023-05-12T20:48:48.523Z,4.22
2023-05-12T20:53:50.710Z,4.40
2023-05-12T20:58:52.879Z,3.97
2023-05-12T21:03:54.746Z,4.38
2023-05-12T21:08:56.593Z,5.10
2023-05-12T21:13:58.476Z,3.95
2023-05-12T21:19:00.327Z,3.42
2023-05-12T21:24:02.215Z,3.58
2023-05-12T21:29:04.363Z,3.10
2023-05-12T21:34:06.159Z,2.97
2023-05-12T21:39:08.102Z,3.03
2023-05-12T21:44:11.192Z,2.83
2023-05-12T21:49:13.936Z,4.10
2023-05-12T21:54:15.831Z,5.90
2023-05-12T21:59:17.721Z,11.27
2023-05-12T22:04:19.994Z,7.30
2023-05-12T22:09:22.314Z,5.30
2023-05-12T22:14:24.473Z,4.30
2023-05-12T22:19:26.656Z,4.07
2023-05-12T22:24:28.576Z,4.60
2023-05-12T22:29:30.497Z,4.13
2023-05-12T22:34:32.356Z,4.40
2023-05-12T22:39:34.205Z,3.92
2023-05-12T22:44:36.061Z,3.85
2023-05-12T22:49:38.043Z,3.35
2023-05-12T22:54:39.891Z,3.65
2023-05-12T22:59:41.720Z,3.95
2023-05-12T23:04:44.049Z,3.90
2023-05-12T23:09:45.966Z,4.03
2023-05-12T23:14:47.935Z,3.97
2023-05-12T23:19:50.202Z,4.50
2023-05-12T23:24:52.704Z,2.97
2023-05-12T23:29:54.539Z,3.40
2023-05-12T23:34:56.545Z,3.45
2023-05-12T23:39:58.427Z,3.63
2023-05-12T23:45:00.314Z,3.15
2023-05-12T23:50:02.241Z,3.15
2023-05-12T23:55:04.328Z,3.05
